Time;durP1;ratioP1;P1;durP2;ratioP2;P2;SDS_P1;SDS_P2;PMS_P1;PMS_P2;Temp;Humidity;BMP_temperature;BMP_pressure;BME280_temperature;BME280_humidity;BME280_pressure;Samples;Min_cycle;Max_cycle;Signal;HPM_P1;HPM_P2
2023/08/25 00:01:23;;;;;;;6.13;4.50;;;;;;;-147.16;100.00;58666.56;7395149;19;20015;-67
2023/08/25 00:03:52;;;;;;;6.22;4.75;;;;;;;-147.16;100.00;58666.56;7393963;19;20011;-67
2023/08/25 00:06:20;;;;;;;4.60;4.20;;;;;;;-147.16;100.00;58666.56;7393195;19;20031;-66
2023/08/25 00:08:51;;;;;;;5.28;4.78;;;;;;;-147.16;100.00;58666.56;7395331;19;20024;-66
2023/08/25 00:11:19;;;;;;;5.95;4.70;;;;;;;-147.16;100.00;58666.56;7393838;19;20098;-66
2023/08/25 00:13:48;;;;;;;6.75;4.53;;;;;;;-147.16;100.00;58666.56;7393290;19;20078;-67
2023/08/25 00:16:16;;;;;;;4.97;4.47;;;;;;;-147.16;100.00;58666.56;7394299;19;20075;-66
2023/08/25 00:18:45;;;;;;;6.93;4.57;;;;;;;-147.16;100.00;58666.56;7394562;19;20115;-66
2023/08/25 00:21:14;;;;;;;10.35;4.93;;;;;;;-147.16;100.00;58666.56;7394552;19;20082;-66
2023/08/25 00:23:43;;;;;;;6.43;4.88;;;;;;;-147.16;100.00;58666.56;7395482;19;20015;-66
2023/08/25 00:26:14;;;;;;;5.88;4.72;;;;;;;-147.16;100.00;58666.56;7401571;19;20429;-66
2023/08/25 00:28:42;;;;;;;5.30;4.80;;;;;;;-147.16;100.00;58666.56;7402455;19;20021;-66
2023/08/25 00:31:18;;;;;;;8.98;4.97;;;;;;;-147.16;100.00;58666.56;7401867;19;20018;-67
2023/08/25 00:33:51;;;;;;;7.75;4.70;;;;;;;-147.16;100.00;58666.56;7399074;19;20404;-67
2023/08/25 00:36:19;;;;;;;6.40;4.20;;;;;;;-147.16;100.00;58666.56;7401792;19;20022;-66
2023/08/25 00:38:48;;;;;;;6.50;4.53;;;;;;;-147.16;100.00;58666.56;7401255;19;20082;-66
2023/08/25 00:41:19;;;;;;;6.40;4.28;;;;;;;-147.16;100.00;58666.56;7400475;19;20488;-66
2023/08/25 00:43:47;;;;;;;4.70;4.30;;;;;;;-147.16;100.00;58666.56;7398875;19;20081;-67
2023/08/25 00:46:16;;;;;;;6.18;4.30;;;;;;;-147.16;100.00;58666.56;7398414;19;20474;-66
2023/08/25 00:48:44;;;;;;;4.82;4.32;;;;;;;-147.16;100.00;58666.56;7398282;19;20087;-67
2023/08/25 00:51:13;;;;;;;6.00;5.50;;;;;;;-147.16;100.00;58666.56;7398479;19;20074;-67
2023/08/25 00:53:43;;;;;;;5.45;4.88;;;;;;;-147.16;100.00;58666.56;7399134;19;20010;-67
2023/08/25 00:56:14;;;;;;;5.43;4.93;;;;;;;-147.16;100.00;58666.56;7402335;19;20426;-67
2023/08/25 00:58:45;;;;;;;7.38;4.80;;;;;;;-147.16;100.00;58666.56;7402271;19;20014;-70
2023/08/25 01:01:15;;;;;;;7.60;6.88;;;;;;;-147.16;100.00;58666.56;7399432;19;20019;-66
2023/08/25 01:03:43;;;;;;;5.72;5.03;;;;;;;-147.16;100.00;58666.56;7397713;19;20379;-68
2023/08/25 01:06:12;;;;;;;5.70;5.10;;;;;;;-147.16;100.00;58666.56;7400710;19;20074;-66
2023/08/25 01:08:41;;;;;;;5.95;5.32;;;;;;;-147.16;100.00;58666.56;7397716;19;20070;-67
2023/08/25 01:11:23;;;;;;;5.75;4.88;;;;;;;-147.16;100.00;58666.56;7397992;19;20015;-66
2023/08/25 01:14:04;;;;;;;7.85;4.60;;;;;;;-147.16;100.00;58666.56;7398104;19;20066;-66
2023/08/25 01:16:38;;;;;;;8.32;5.20;;;;;;;-147.16;100.00;58666.56;7400837;19;20017;-66
2023/08/25 01:19:07;;;;;;;5.97;5.22;;;;;;;-147.16;100.00;58666.56;7397659;19;20069;-66
2023/08/25 01:21:38;;;;;;;5.85;5.32;;;;;;;-147.16;100.00;58666.56;7400227;19;20014;-66
2023/08/25 01:24:15;;;;;;;6.57;5.53;;;;;;;-147.16;100.00;58666.56;7397375;19;20371;-66
2023/08/25 01:26:46;;;;;;;4.70;4.30;;;;;;;-147.16;100.00;58666.56;7399733;19;20504;-66
2023/08/25 01:29:15;;;;;;;7.88;4.80;;;;;;;-147.16;100.00;58666.56;7400217;19;20042;-65
2023/08/25 01:31:43;;;;;;;5.40;4.88;;;;;;;-147.16;100.00;58666.56;7397481;19;20027;-65
2023/08/25 01:34:15;;;;;;;4.80;4.40;;;;;;;-147.16;100.00;58666.56;7396862;19;20505;-65
2023/08/25 01:36:53;;;;;;;5.95;4.88;;;;;;;-147.16;100.00;58666.56;7396466;19;20015;-65
2023/08/25 01:39:21;;;;;;;6.88;4.70;;;;;;;-147.16;100.00;58666.56;7397013;19;20477;-65
2023/08/25 01:41:59;;;;;;;5.60;4.70;;;;;;;-147.16;100.00;58666.56;7398149;19;20089;-65
2023/08/25 01:44:29;;;;;;;6.72;4.72;;;;;;;-147.16;100.00;58666.56;7397496;19;20031;-65
2023/08/25 01:47:06;;;;;;;5.63;4.95;;;;;;;-147.16;100.00;58666.56;7396723;19;20070;-65
2023/08/25 01:49:35;;;;;;;7.03;5.88;;;;;;;-147.16;100.00;58666.56;7398964;19;20086;-65
2023/08/25 01:52:04;;;;;;;6.28;5.47;;;;;;;-147.16;100.00;58666.56;7396587;19;20519;-65
2023/08/25 01:54:32;;;;;;;5.65;5.15;;;;;;;-147.16;100.00;58666.56;7396581;19;20438;-65
2023/08/25 01:57:03;;;;;;;6.00;5.40;;;;;;;-147.16;100.00;58666.56;7398689;19;20501;-65
2023/08/25 01:59:32;;;;;;;6.30;5.07;;;;;;;-147.16;100.00;58666.56;7397239;19;20014;-66
2023/08/25 02:02:00;;;;;;;6.88;5.25;;;;;;;-147.16;100.00;58666.56;7396359;19;20419;-66
2023/08/25 02:04:29;;;;;;;8.38;5.35;;;;;;;-147.16;100.00;58666.56;7396858;19;20100;-66
2023/08/25 02:06:57;;;;;;;7.03;5.35;;;;;;;-147.16;100.00;58666.56;7398705;19;20085;-67
2023/08/25 02:09:25;;;;;;;6.10;5.07;;;;;;;-147.16;100.00;58666.56;7398740;19;20089;-71
2023/08/25 02:11:54;;;;;;;7.18;5.20;;;;;;;-147.16;100.00;58666.56;7398734;19;20018;-71
2023/08/25 02:14:26;;;;;;;6.47;5.28;;;;;;;-147.16;100.00;58666.56;7400327;19;20016;-71
2023/08/25 02:16:54;;;;;;;6.47;5.22;;;;;;;-147.16;100.00;58666.56;7401097;19;20015;-73
2023/08/25 02:19:23;;;;;;;7.68;5.57;;;;;;;-147.16;100.00;58666.56;7401215;19;20011;-71
2023/08/25 02:21:51;;;;;;;6.85;5.85;;;;;;;-147.16;100.00;58666.56;7395765;19;20014;-71
2023/08/25 02:24:20;;;;;;;7.40;5.57;;;;;;;-147.16;100.00;58666.56;7396006;19;20425;-71
2023/08/25 02:26:49;;;;;;;5.82;5.22;;;;;;;-147.16;100.00;58666.56;7397553;19;20074;-71
2023/08/25 02:29:17;;;;;;;6.63;5.93;;;;;;;-147.16;100.00;58666.56;7395618;19;20035;-70
2023/08/25 02:31:48;;;;;;;7.47;5.65;;;;;;;-147.16;100.00;58666.56;7395881;19;20074;-66
2023/08/25 02:34:17;;;;;;;5.63;5.13;;;;;;;-147.16;100.00;58666.56;7395766;19;20074;-65
2023/08/25 02:36:45;;;;;;;7.40;6.00;;;;;;;-147.16;100.00;58666.56;7395219;19;20074;-66
2023/08/25 02:39:13;;;;;;;7.45;6.00;;;;;;;-147.16;100.00;58666.56;7395165;19;20419;-65
2023/08/25 02:41:42;;;;;;;8.88;6.07;;;;;;;-147.16;100.00;58666.56;7396603;19;20019;-65
2023/08/25 02:44:10;;;;;;;7.57;5.80;;;;;;;-147.16;100.00;58666.56;7395584;19;20018;-65
2023/08/25 02:46:40;;;;;;;8.02;5.97;;;;;;;-147.16;100.00;58666.56;7395440;19;20066;-65
2023/08/25 02:49:11;;;;;;;10.00;6.20;;;;;;;-147.16;100.00;58666.56;7397014;19;20014;-66
2023/08/25 02:51:39;;;;;;;6.90;6.22;;;;;;;-147.16;100.00;58666.56;7395889;19;20074;-66
2023/08/25 02:54:08;;;;;;;6.55;5.60;;;;;;;-147.16;100.00;58666.56;7395266;19;20094;-66
2023/08/25 02:56:36;;;;;;;6.07;5.45;;;;;;;-147.16;100.00;58666.56;7396922;19;20014;-65
2023/08/25 02:59:05;;;;;;;7.75;5.90;;;;;;;-147.16;100.00;58666.56;7395295;19;20082;-65
2023/08/25 03:01:40;;;;;;;6.30;5.50;;;;;;;-147.16;100.00;58666.56;7395857;19;20055;-66
2023/08/25 03:04:11;;;;;;;7.18;6.15;;;;;;;-147.16;100.00;58666.56;7394919;19;20162;-65
2023/08/25 03:06:39;;;;;;;7.25;6.38;;;;;;;-147.16;100.00;58666.56;7397216;19;20075;-66
2023/08/25 03:09:08;;;;;;;8.48;6.40;;;;;;;-147.16;100.00;58666.56;7396472;19;20074;-66
2023/08/25 03:11:36;;;;;;;9.10;6.28;;;;;;;-147.16;100.00;58666.56;7394297;19;20010;-66
2023/08/25 03:14:05;;;;;;;7.68;6.55;;;;;;;-147.16;100.00;58666.56;7394050;19;20544;-66
2023/08/25 03:16:33;;;;;;;7.40;6.28;;;;;;;-147.16;100.00;58666.56;7395998;19;20023;-66
2023/08/25 03:19:02;;;;;;;9.30;6.60;;;;;;;-147.16;100.00;58666.56;7396326;19;20019;-66
2023/08/25 03:21:33;;;;;;;8.95;6.05;;;;;;;-147.16;100.00;58666.56;7396253;19;20086;-66
2023/08/25 03:24:01;;;;;;;8.25;6.47;;;;;;;-147.16;100.00;58666.56;7394572;19;20014;-67
2023/08/25 03:26:30;;;;;;;10.13;6.70;;;;;;;-147.16;100.00;58666.56;7396124;19;20007;-66
2023/08/25 03:28:58;;;;;;;8.45;6.53;;;;;;;-147.16;100.00;58666.56;7396136;19;20018;-66
2023/08/25 03:31:27;;;;;;;8.13;6.05;;;;;;;-147.16;100.00;58666.56;7395538;19;20419;-66
2023/08/25 03:33:55;;;;;;;7.53;6.82;;;;;;;-147.16;100.00;58666.56;7393432;19;20074;-66
2023/08/25 03:36:24;;;;;;;7.63;6.47;;;;;;;-147.16;100.00;58666.56;7395877;19;20075;-66
2023/08/25 03:38:55;;;;;;;7.97;6.93;;;;;;;-147.16;100.00;58666.56;7395850;19;20023;-66
2023/08/25 03:41:23;;;;;;;8.57;7.47;;;;;;;-147.16;100.00;58666.56;7395233;19;20019;-66
2023/08/25 03:43:52;;;;;;;7.30;6.35;;;;;;;-147.16;100.00;58666.56;7393510;19;20014;-65
2023/08/25 03:46:20;;;;;;;8.73;7.18;;;;;;;-147.16;100.00;58666.56;7395479;19;20014;-66
2023/08/25 03:48:49;;;;;;;8.30;7.10;;;;;;;-147.16;100.00;58666.56;7394444;19;20015;-66
2023/08/25 03:51:17;;;;;;;8.05;6.97;;;;;;;-147.16;100.00;58666.56;7395694;19;20014;-67
2023/08/25 03:53:46;;;;;;;7.53;6.85;;;;;;;-147.16;100.00;58666.56;7393934;19;20077;-67
2023/08/25 03:56:17;;;;;;;7.32;6.63;;;;;;;-147.16;100.00;58666.56;7393227;19;20007;-66
2023/08/25 03:58:45;;;;;;;9.63;7.30;;;;;;;-147.16;100.00;58666.56;7401984;19;20078;-66
2023/08/25 04:01:14;;;;;;;10.05;6.80;;;;;;;-147.16;100.00;58666.56;7409354;19;20010;-66
2023/08/25 04:03:42;;;;;;;10.13;7.28;;;;;;;-147.16;100.00;58666.56;7408256;19;20015;-66
2023/08/25 04:06:14;;;;;;;9.07;7.30;;;;;;;-147.16;100.00;58666.56;7408355;19;20023;-66
2023/08/25 04:08:42;;;;;;;7.85;7.05;;;;;;;-147.16;100.00;58666.56;7408574;19;20028;-66
2023/08/25 04:11:20;;;;;;;8.18;7.25;;;;;;;-147.16;100.00;58666.56;7409310;19;20023;-66
2023/08/25 04:13:50;;;;;;;8.45;7.65;;;;;;;-147.16;100.00;58666.56;7407962;19;20023;-66
2023/08/25 04:16:18;;;;;;;9.90;7.43;;;;;;;-147.16;100.00;58666.56;7408298;19;20478;-66
2023/08/25 04:18:47;;;;;;;9.50;7.13;;;;;;;-147.16;100.00;58666.56;7408646;19;20007;-66
2023/08/25 04:21:15;;;;;;;79.18;54.90;;;;;;;-147.16;100.00;58666.56;7408931;19;20491;-66
2023/08/25 04:23:44;;;;;;;23.73;17.20;;;;;;;-147.16;100.00;58666.56;7406355;19;20370;-66
2023/08/25 04:26:12;;;;;;;9.15;7.68;;;;;;;-147.16;100.00;58666.56;7408256;19;20010;-66
2023/08/25 04:28:43;;;;;;;11.20;9.25;;;;;;;-147.16;100.00;58666.56;7408640;19;20015;-66
2023/08/25 04:31:12;;;;;;;9.43;7.57;;;;;;;-147.16;100.00;58666.56;7408169;19;20011;-66
2023/08/25 04:33:40;;;;;;;10.75;7.80;;;;;;;-147.16;100.00;58666.56;7406816;19;20019;-66
2023/08/25 04:36:09;;;;;;;9.13;7.72;;;;;;;-147.16;100.00;58666.56;7406261;19;20014;-65
2023/08/25 04:38:37;;;;;;;8.38;6.78;;;;;;;-147.16;100.00;58666.56;7405761;19;20375;-66
2023/08/25 04:41:06;;;;;;;8.55;7.57;;;;;;;-147.16;100.00;58666.56;7407604;19;20024;-66
2023/08/25 04:43:34;;;;;;;13.98;8.38;;;;;;;-147.16;100.00;58666.56;7407913;19;20014;-67
2023/08/25 04:46:07;;;;;;;10.68;8.05;;;;;;;-147.16;100.00;58666.56;7410647;19;20023;-65
2023/08/25 04:48:36;;;;;;;8.15;7.32;;;;;;;-147.16;100.00;58666.56;7411926;19;20017;-66
2023/08/25 04:51:05;;;;;;;9.80;7.30;;;;;;;-147.16;100.00;58666.56;7407605;19;20120;-66
2023/08/25 04:53:33;;;;;;;12.52;9.73;;;;;;;-147.16;100.00;58666.56;7406725;19;20082;-67
2023/08/25 04:56:02;;;;;;;10.00;8.70;;;;;;;-147.16;100.00;58666.56;7405597;19;20033;-66
2023/08/25 04:58:31;;;;;;;14.02;8.95;;;;;;;-147.16;100.00;58666.56;7405494;19;20031;-65
2023/08/25 05:01:00;;;;;;;9.40;7.68;;;;;;;-147.16;100.00;58666.56;7407866;19;20042;-67
2023/08/25 05:03:31;;;;;;;10.95;8.68;;;;;;;-147.16;100.00;58666.56;7406549;19;20073;-65
2023/08/25 05:05:59;;;;;;;9.75;8.43;;;;;;;-147.16;100.00;58666.56;7407082;19;20546;-65
2023/08/25 05:08:28;;;;;;;10.38;9.25;;;;;;;-147.16;100.00;58666.56;7407226;19;20021;-66
2023/08/25 05:10:56;;;;;;;13.77;8.57;;;;;;;-147.16;100.00;58666.56;7396753;19;20018;-66
2023/08/25 05:13:25;;;;;;;9.68;7.22;;;;;;;-147.16;100.00;58666.56;7398139;19;20007;-66
2023/08/25 05:15:53;;;;;;;10.85;7.93;;;;;;;-147.16;100.00;58666.56;7397777;19;20014;-67
2023/08/25 05:18:24;;;;;;;10.32;7.82;;;;;;;-147.16;100.00;58666.56;7397233;19;20512;-66
2023/08/25 05:21:00;;;;;;;10.55;7.57;;;;;;;-147.16;100.00;58666.56;7397464;19;20016;-65
2023/08/25 05:23:29;;;;;;;10.43;7.55;;;;;;;-147.16;100.00;58666.56;7398148;19;20021;-67
2023/08/25 05:25:58;;;;;;;10.13;7.15;;;;;;;-147.16;100.00;58666.56;7399893;19;20031;-66
2023/08/25 05:28:26;;;;;;;10.65;7.20;;;;;;;-147.16;100.00;58666.56;7397109;19;20477;-66
2023/08/25 05:30:55;;;;;;;8.52;7.10;;;;;;;-147.16;100.00;58666.56;7397527;19;20023;-66
2023/08/25 05:33:23;;;;;;;8.85;8.05;;;;;;;-147.16;100.00;58666.56;7398254;19;20549;-66
2023/08/25 05:35:54;;;;;;;10.93;7.50;;;;;;;-147.16;100.00;58666.56;7397065;19;20007;-66
2023/08/25 05:38:23;;;;;;;8.13;7.28;;;;;;;-147.16;100.00;58666.56;7399361;19;20370;-66
2023/08/25 05:40:51;;;;;;;8.73;7.88;;;;;;;-147.16;100.00;58666.56;7398770;19;20027;-66
2023/08/25 05:43:26;;;;;;;9.10;7.95;;;;;;;-147.16;100.00;58666.56;7396484;19;20027;-67
2023/08/25 05:45:54;;;;;;;9.70;8.05;;;;;;;-147.16;100.00;58666.56;7399192;19;20014;-66
2023/08/25 05:48:23;;;;;;;11.63;8.13;;;;;;;-147.16;100.00;58666.56;7399304;19;20078;-66
2023/08/25 05:50:51;;;;;;;8.70;7.93;;;;;;;-147.16;100.00;58666.56;7396782;19;20027;-66
2023/08/25 05:53:22;;;;;;;10.73;8.80;;;;;;;-147.16;100.00;58666.56;7398282;19;20018;-65
2023/08/25 05:55:53;;;;;;;7.95;7.15;;;;;;;-147.16;100.00;58666.56;7396891;19;20014;-66
2023/08/25 05:58:21;;;;;;;9.75;8.02;;;;;;;-147.16;100.00;58666.56;7398800;19;20010;-66
2023/08/25 06:00:50;;;;;;;8.65;7.65;;;;;;;-147.16;100.00;58666.56;7397174;19;20082;-66
2023/08/25 06:03:19;;;;;;;11.63;10.35;;;;;;;-147.16;100.00;58666.56;7396520;19;20362;-66
2023/08/25 06:05:51;;;;;;;10.48;9.43;;;;;;;-147.16;100.00;58666.56;7394733;19;20481;-66
2023/08/25 06:08:19;;;;;;;8.85;7.38;;;;;;;-147.16;100.00;58666.56;7395543;19;20343;-66
2023/08/25 06:10:52;;;;;;;8.90;7.93;;;;;;;-147.16;100.00;58666.56;7397844;19;20010;-66
2023/08/25 06:13:21;;;;;;;8.90;7.88;;;;;;;-147.16;100.00;58666.56;7395852;19;20028;-66
2023/08/25 06:15:50;;;;;;;9.32;8.40;;;;;;;-147.16;100.00;58666.56;7395423;19;20011;-66
2023/08/25 06:18:18;;;;;;;10.40;8.10;;;;;;;-147.16;100.00;58666.56;7397358;19;20489;-66
2023/08/25 06:20:47;;;;;;;9.30;8.27;;;;;;;-147.16;100.00;58666.56;7397283;19;20022;-65
2023/08/25 06:23:15;;;;;;;8.77;7.97;;;;;;;-147.16;100.00;58666.56;7396475;19;20015;-65
2023/08/25 06:25:46;;;;;;;10.73;7.70;;;;;;;-147.16;100.00;58666.56;7397153;19;20078;-66
2023/08/25 06:28:17;;;;;;;8.90;7.53;;;;;;;-147.16;100.00;58666.56;7398117;19;20011;-65
2023/08/25 06:30:46;;;;;;;8.63;7.78;;;;;;;-147.16;100.00;58666.56;7397202;19;20433;-65
2023/08/25 06:33:14;;;;;;;9.23;8.40;;;;;;;-147.16;100.00;58666.56;7396574;19;20274;-65
2023/08/25 06:35:43;;;;;;;9.05;7.90;;;;;;;-147.16;100.00;58666.56;7394873;19;20015;-65
2023/08/25 06:38:11;;;;;;;10.32;8.02;;;;;;;-147.16;100.00;58666.56;7396832;19;20010;-65
2023/08/25 06:40:40;;;;;;;10.43;7.82;;;;;;;-147.16;100.00;58666.56;7397246;19;20010;-65
2023/08/25 06:43:08;;;;;;;11.88;8.00;;;;;;;-147.16;100.00;58666.56;7394472;19;20077;-66
2023/08/25 06:45:39;;;;;;;8.88;7.93;;;;;;;-147.16;100.00;58666.56;7396243;19;20490;-66
2023/08/25 06:48:08;;;;;;;10.45;8.02;;;;;;;-147.16;100.00;58666.56;7397347;19;20375;-66
2023/08/25 06:50:37;;;;;;;10.82;7.65;;;;;;;-147.16;100.00;58666.56;7396806;19;20014;-66
2023/08/25 06:53:07;;;;;;;10.82;7.82;;;;;;;-147.16;100.00;58666.56;7394601;19;20419;-66
2023/08/25 06:55:36;;;;;;;8.55;7.68;;;;;;;-147.16;100.00;58666.56;7395841;19;20019;-66
2023/08/25 06:58:06;;;;;;;11.60;7.90;;;;;;;-147.16;100.00;58666.56;7396933;19;20027;-65
2023/08/25 07:00:35;;;;;;;14.27;7.60;;;;;;;-147.16;100.00;58666.56;7396038;19;20502;-66
2023/08/25 07:03:07;;;;;;;8.18;7.30;;;;;;;-147.16;100.00;58666.56;7394595;19;20010;-66
2023/08/25 07:05:38;;;;;;;10.88;7.72;;;;;;;-147.16;100.00;58666.56;7396791;19;20022;-66
2023/08/25 07:08:08;;;;;;;9.40;7.30;;;;;;;-147.16;100.00;58666.56;7394737;19;20019;-66
2023/08/25 07:10:37;;;;;;;8.77;7.35;;;;;;;-147.16;100.00;58666.56;7395499;19;20035;-66
2023/08/25 07:13:06;;;;;;;10.07;7.20;;;;;;;-147.16;100.00;58666.56;7394627;19;20015;-66
2023/08/25 07:15:34;;;;;;;8.70;6.55;;;;;;;-147.16;100.00;58666.56;7395000;19;20028;-66
2023/08/25 07:18:03;;;;;;;13.45;7.10;;;;;;;-147.16;100.00;58666.56;7396129;19;20021;-66
2023/08/25 07:20:34;;;;;;;8.38;7.57;;;;;;;-147.16;100.00;58666.56;7395335;19;20010;-65
2023/08/25 07:23:03;;;;;;;11.02;7.28;;;;;;;-147.16;100.00;58666.56;7393626;19;20347;-64
2023/08/25 07:25:31;;;;;;;9.27;7.05;;;;;;;-147.16;100.00;58666.56;7394327;19;20380;-65
2023/08/25 07:28:00;;;;;;;6.97;6.28;;;;;;;-147.16;100.00;58666.56;7393076;19;20015;-65
2023/08/25 07:30:28;;;;;;;7.85;6.40;;;;;;;-147.16;100.00;58666.56;7392913;19;20006;-65
2023/08/25 07:32:57;;;;;;;8.98;6.60;;;;;;;-147.16;100.00;58666.56;7392648;19;20074;-65
2023/08/25 07:35:25;;;;;;;8.00;6.35;;;;;;;-147.16;100.00;58666.56;7392337;19;20031;-65
2023/08/25 07:37:57;;;;;;;8.38;6.68;;;;;;;-147.16;100.00;58666.56;7394486;19;20353;-65
2023/08/25 07:40:25;;;;;;;11.88;6.68;;;;;;;-147.16;100.00;58666.56;7394761;19;20017;-65
2023/08/25 07:42:54;;;;;;;8.43;6.95;;;;;;;-147.16;100.00;58666.56;7393973;19;20011;-65
2023/08/25 07:45:22;;;;;;;8.13;6.63;;;;;;;-147.16;100.00;58666.56;7395134;19;20029;-65
2023/08/25 07:47:51;;;;;;;7.85;6.78;;;;;;;-147.16;100.00;58666.56;7392988;19;20019;-65
2023/08/25 07:50:19;;;;;;;9.30;6.32;;;;;;;-147.16;100.00;58666.56;7394238;19;20481;-65
2023/08/25 07:52:48;;;;;;;7.38;6.68;;;;;;;-147.16;100.00;58666.56;7393458;19;20086;-66
2023/08/25 07:55:19;;;;;;;10.55;8.25;;;;;;;-147.16;100.00;58666.56;7393445;19;20074;-66
2023/08/25 07:57:48;;;;;;;11.85;7.30;;;;;;;-147.16;100.00;58666.56;7392950;19;20021;-66
2023/08/25 08:00:18;;;;;;;7.80;5.95;;;;;;;-147.16;100.00;58666.56;7394388;19;20015;-66
2023/08/25 08:02:48;;;;;;;7.45;6.75;;;;;;;-147.16;100.00;58666.56;7393683;19;20019;-66
2023/08/25 08:05:17;;;;;;;7.38;6.68;;;;;;;-147.16;100.00;58666.56;7392126;19;20014;-66
2023/08/25 08:07:46;;;;;;;7.70;6.90;;;;;;;-147.16;100.00;58666.56;7392311;19;20015;-65
2023/08/25 08:10:15;;;;;;;9.65;6.57;;;;;;;-147.16;100.00;58666.56;7392368;19;20031;-66
2023/08/25 08:12:46;;;;;;;8.27;6.63;;;;;;;-147.16;100.00;58666.56;7393112;19;20392;-66
2023/08/25 08:15:14;;;;;;;8.48;6.72;;;;;;;-147.16;100.00;58666.56;7393219;19;20095;-66
2023/08/25 08:17:43;;;;;;;8.70;6.30;;;;;;;-147.16;100.00;58666.56;7393833;19;20019;-67
2023/08/25 08:20:14;;;;;;;6.80;6.10;;;;;;;-147.16;100.00;58666.56;7393426;19;20486;-67
2023/08/25 08:22:43;;;;;;;6.63;6.00;;;;;;;-147.16;100.00;58666.56;7392135;19;20026;-66
2023/08/25 08:25:14;;;;;;;7.72;6.45;;;;;;;-147.16;100.00;58666.56;7391644;19;20021;-66
2023/08/25 08:27:46;;;;;;;6.95;5.57;;;;;;;-147.16;100.00;58666.56;7392834;19;20077;-66
2023/08/25 08:30:16;;;;;;;7.80;5.80;;;;;;;-147.16;100.00;58666.56;7392545;19;20485;-65
2023/08/25 08:32:45;;;;;;;8.68;6.20;;;;;;;-147.16;100.00;58666.56;7390927;19;20011;-66
2023/08/25 08:35:14;;;;;;;10.00;6.18;;;;;;;-147.16;100.00;58666.56;7391992;19;20478;-66
2023/08/25 08:37:42;;;;;;;9.48;5.88;;;;;;;-147.16;100.00;58666.56;7393516;19;20367;-66
2023/08/25 08:40:33;;;;;;;10.15;6.25;;;;;;;-147.16;100.00;58666.56;7393260;19;20014;-66
2023/08/25 08:43:18;;;;;;;7.88;6.47;;;;;;;-147.16;100.00;58666.56;7391379;19;20503;-66
2023/08/25 08:45:51;;;;;;;6.75;5.65;;;;;;;-147.16;100.00;58666.56;7396731;19;20030;-65
2023/08/25 08:48:22;;;;;;;;;;;;;;;-147.16;100.00;58666.56;7399364;19;20031;-66
2023/08/25 08:50:51;;;;;;;6.55;5.40;;;;;;;-147.16;100.00;58666.56;7397170;19;19970;-66
2023/08/25 08:53:21;;;;;;;6.72;5.60;;;;;;;-147.16;100.00;58666.56;7397393;19;20027;-66
2023/08/25 08:55:53;;;;;;;5.78;5.28;;;;;;;-147.16;100.00;58666.56;7397638;19;20017;-66
2023/08/25 08:58:24;;;;;;;6.82;5.80;;;;;;;-147.16;100.00;58666.56;7401437;19;20038;-66
2023/08/25 09:00:56;;;;;;;12.20;5.82;;;;;;;-147.16;100.00;58666.56;7397160;19;20042;-66
2023/08/25 09:03:29;;;;;;;6.88;4.85;;;;;;;-147.16;100.00;58666.56;7398915;19;20011;-66
2023/08/25 09:06:03;;;;;;;5.57;5.07;;;;;;;-147.16;100.00;58666.56;7400331;19;20033;-66
2023/08/25 09:08:32;;;;;;;7.05;5.07;;;;;;;-147.16;100.00;58666.56;7399322;19;20504;-66
2023/08/25 09:11:05;;;;;;;7.32;4.90;;;;;;;-147.16;100.00;58666.56;7399578;19;20031;-66
2023/08/25 09:13:39;;;;;;;4.45;3.92;;;;;;;-147.16;100.00;58666.56;7397773;19;20011;-66
2023/08/25 09:16:14;;;;;;;5.30;3.78;;;;;;;-147.16;100.00;58666.56;7398397;19;20015;-66
2023/08/25 09:18:42;;;;;;;5.05;4.32;;;;;;;-147.16;100.00;58666.56;7396337;19;20485;-65
2023/08/25 09:21:18;;;;;;;8.10;4.35;;;;;;;-147.16;100.00;58666.56;7397938;19;20376;-65
2023/08/25 09:23:58;;;;;;;8.13;4.00;;;;;;;-147.16;100.00;58666.56;7397550;19;20059;-65
2023/08/25 09:26:27;;;;;;;5.38;3.83;;;;;;;-147.16;100.00;58666.56;7397564;19;20011;-65
2023/08/25 09:29:00;;;;;;;6.93;3.78;;;;;;;-147.16;100.00;58666.56;7397500;19;20506;-65
2023/08/25 09:31:31;;;;;;;6.70;3.85;;;;;;;-147.16;100.00;58666.56;7397528;19;20011;-65
2023/08/25 09:34:04;;;;;;;6.38;4.07;;;;;;;-147.16;100.00;58666.56;7395723;19;20018;-65
2023/08/25 09:36:33;;;;;;;7.00;3.80;;;;;;;-147.16;100.00;58666.56;7397494;19;20006;-66
2023/08/25 09:39:03;;;;;;;5.72;3.42;;;;;;;-147.16;100.00;58666.56;7396004;19;20066;-66
2023/08/25 09:41:32;;;;;;;8.45;3.78;;;;;;;-147.16;100.00;58666.56;7398105;19;20003;-65
2023/08/25 09:44:04;;;;;;;5.18;3.30;;;;;;;-147.16;100.00;58666.56;7395143;19;20462;-65
2023/08/25 09:46:36;;;;;;;4.87;4.07;;;;;;;-147.16;100.00;58666.56;7398386;19;20062;-65
2023/08/25 09:49:05;;;;;;;9.90;4.50;;;;;;;-147.16;100.00;58666.56;7395611;19;20017;-66
2023/08/25 09:51:39;;;;;;;5.80;3.97;;;;;;;-147.16;100.00;58666.56;7394969;19;20364;-65
2023/08/25 09:54:12;;;;;;;5.47;3.95;;;;;;;-147.16;100.00;58666.56;7396068;19;20029;-65
2023/08/25 09:56:43;;;;;;;6.82;3.53;;;;;;;-147.16;100.00;58666.56;7395237;19;20014;-65
2023/08/25 09:59:15;;;;;;;6.65;3.92;;;;;;;-147.16;100.00;58666.56;7397964;19;20010;-65
2023/08/25 10:01:45;;;;;;;17.20;4.55;;;;;;;-147.16;100.00;58666.56;7398883;19;20510;-65
2023/08/25 10:04:16;;;;;;;7.25;3.78;;;;;;;-147.16;100.00;58666.56;7394660;19;20461;-65
2023/08/25 10:06:45;;;;;;;8.75;4.05;;;;;;;-147.16;100.00;58666.56;7396883;19;20010;-66
2023/08/25 10:09:14;;;;;;;9.70;3.58;;;;;;;-147.16;100.00;58666.56;7397341;19;20024;-65
2023/08/25 10:11:44;;;;;;;6.70;3.92;;;;;;;-147.16;100.00;58666.56;7396488;19;20094;-66
2023/08/25 10:14:16;;;;;;;6.53;3.42;;;;;;;-147.16;100.00;58666.56;7395071;19;20112;-66
2023/08/25 10:16:50;;;;;;;7.38;3.92;;;;;;;-147.16;100.00;58666.56;7394742;19;20070;-66
2023/08/25 10:19:23;;;;;;;5.45;4.20;;;;;;;-147.16;100.00;58666.56;7397676;19;20006;-66
2023/08/25 10:21:53;;;;;;;6.18;3.35;;;;;;;-147.16;100.00;58666.56;7397361;19;20030;-66
2023/08/25 10:24:22;;;;;;;7.85;3.70;;;;;;;-147.16;100.00;58666.56;7395059;19;20027;-65
2023/08/25 10:26:53;;;;;;;6.65;3.65;;;;;;;-147.16;100.00;58666.56;7396031;19;20017;-66
2023/08/25 10:29:26;;;;;;;4.78;3.40;;;;;;;-147.16;100.00;58666.56;7395869;19;20010;-65
2023/08/25 10:32:01;;;;;;;5.85;3.72;;;;;;;-147.16;100.00;58666.56;7393981;19;20449;-66
2023/08/25 10:34:35;;;;;;;5.88;3.90;;;;;;;-147.16;100.00;58666.56;7393928;19;20014;-66
2023/08/25 10:37:11;;;;;;;8.90;3.70;;;;;;;-147.16;100.00;58666.56;7394865;19;20481;-65
2023/08/25 10:39:50;;;;;;;4.93;3.80;;;;;;;-147.16;100.00;58666.56;7396238;19;20481;-65
2023/08/25 10:42:30;;;;;;;4.45;3.88;;;;;;;-147.16;100.00;58666.56;7396623;19;20030;-65
2023/08/25 10:45:07;;;;;;;9.60;5.15;;;;;;;-147.16;100.00;58666.56;7395262;19;20022;-66
2023/08/25 10:47:41;;;;;;;7.68;4.47;;;;;;;-147.16;100.00;58666.56;7397470;19;20455;-65
2023/08/25 10:50:11;;;;;;;6.47;3.55;;;;;;;-147.16;100.00;58666.56;7396344;19;20019;-67
2023/08/25 10:52:44;;;;;;;6.90;4.32;;;;;;;-147.16;100.00;58666.56;7395395;19;20096;-65
2023/08/25 10:55:27;;;;;;;6.30;4.30;;;;;;;-147.16;100.00;58666.56;7396625;19;20015;-65
2023/08/25 10:57:56;;;;;;;5.25;4.13;;;;;;;-147.16;100.00;58666.56;7395923;19;20021;-64
2023/08/25 11:00:33;;;;;;;6.70;4.18;;;;;;;-147.16;100.00;58666.56;7395590;19;20027;-65
2023/08/25 11:03:02;;;;;;;8.88;3.95;;;;;;;-147.16;100.00;58666.56;7393919;19;20050;-65
2023/08/25 11:05:44;;;;;;;4.47;3.28;;;;;;;-147.16;100.00;58666.56;7395200;19;20086;-66
2023/08/25 11:08:29;;;;;;;5.38;3.78;;;;;;;-147.16;100.00;58666.56;7391600;19;20026;-65
2023/08/25 11:11:14;;;;;;;9.02;4.20;;;;;;;-147.16;100.00;58666.56;7395025;19;20033;-65
2023/08/25 11:13:43;;;;;;;9.95;4.15;;;;;;;-147.16;100.00;58666.56;7394142;19;20539;-65
2023/08/25 11:16:15;;;;;;;6.55;4.28;;;;;;;-147.16;100.00;58666.56;7395754;19;20014;-65
2023/08/25 11:18:44;;;;;;;6.55;3.92;;;;;;;-147.16;100.00;58666.56;7395668;19;20086;-65
2023/08/25 11:21:14;;;;;;;7.78;4.20;;;;;;;-147.16;100.00;58666.56;7394634;19;20011;-65